createdAt,value
2019-01-24T00:01:50.742Z,79.99
2019-01-24T00:04:21.557Z,81.00
2019-01-24T00:06:52.252Z,81.53
2019-01-24T00:09:22.758Z,80.85
2019-01-24T00:11:53.213Z,81.14
2019-01-24T00:14:23.696Z,81.14
2019-01-24T00:16:54.152Z,80.99
2019-01-24T00:19:24.912Z,81.20
2019-01-24T00:21:55.708Z,80.60
2019-01-24T00:24:26.155Z,80.87
2019-01-24T00:26:56.617Z,81.01
2019-01-24T00:29:27.110Z,82.07
2019-01-24T00:31:57.471Z,81.61
2019-01-24T00:34:27.969Z,80.03
2019-01-24T00:36:58.320Z,80.23
2019-01-24T00:39:28.854Z,79.79
2019-01-24T00:41:59.258Z,79.84
2019-01-24T00:44:29.974Z,80.70
2019-01-24T00:47:00.664Z,79.48
2019-01-24T00:49:31.123Z,79.48
2019-01-24T00:52:01.838Z,80.43
2019-01-24T00:54:32.315Z,81.05
2019-01-24T00:57:03.028Z,80.89
2019-01-24T00:59:33.730Z,81.59
2019-01-24T01:02:04.185Z,80.85
2019-01-24T01:04:34.961Z,80.61
2019-01-24T01:07:05.741Z,81.02
2019-01-24T01:09:36.203Z,80.88
2019-01-24T01:12:07.747Z,80.95
2019-01-24T01:14:38.270Z,81.18
2019-01-24T01:17:08.703Z,81.22
2019-01-24T01:19:39.471Z,80.64
2019-01-24T01:22:10.186Z,80.39
2019-01-24T01:24:40.635Z,80.92
2019-01-24T01:27:11.114Z,81.00
2019-01-24T01:29:41.830Z,81.03
2019-01-24T01:32:12.822Z,80.81
2019-01-24T01:34:43.263Z,81.27
2019-01-24T01:37:14.018Z,81.23
2019-01-24T01:39:44.692Z,82.00
2019-01-24T01:42:15.174Z,82.05
2019-01-24T01:44:45.630Z,81.55
2019-01-24T01:47:16.138Z,81.77
2019-01-24T01:49:46.612Z,82.48
2019-01-24T01:52:17.318Z,82.20
2019-01-24T01:54:47.751Z,81.70
2019-01-24T01:57:18.753Z,81.85
2019-01-24T01:59:48.937Z,81.64
2019-01-24T02:02:19.381Z,81.83
2019-01-24T02:04:50.143Z,81.50
2019-01-24T02:07:20.866Z,81.65
2019-01-24T02:09:51.485Z,81.08
2019-01-24T02:12:22.230Z,81.85
2019-01-24T02:14:52.723Z,82.04
2019-01-24T02:17:23.170Z,81.38
2019-01-24T02:19:53.907Z,82.13
2019-01-24T02:22:24.280Z,80.98
2019-01-24T02:24:54.760Z,80.93
2019-01-24T02:27:25.439Z,82.06
2019-01-24T02:29:55.869Z,82.53
2019-01-24T02:32:26.620Z,81.26
2019-01-24T02:34:57.066Z,81.27
2019-01-24T02:37:27.703Z,81.88
2019-01-24T02:39:58.419Z,81.96
2019-01-24T02:42:28.876Z,81.37
2019-01-24T02:44:59.335Z,82.08
2019-01-24T02:47:29.741Z,81.29
2019-01-24T02:50:00.521Z,81.11
2019-01-24T02:52:31.260Z,81.72
2019-01-24T02:55:02.016Z,81.34
2019-01-24T02:57:32.746Z,81.20
2019-01-24T03:00:03.199Z,81.22
2019-01-24T03:02:33.961Z,80.85
2019-01-24T03:05:05.460Z,81.27
2019-01-24T03:07:35.899Z,82.32
2019-01-24T03:10:08.966Z,82.32
2019-01-24T03:12:39.691Z,82.67
2019-01-24T03:15:13.141Z,82.28
2019-01-24T03:17:43.551Z,82.17
2019-01-24T03:20:14.240Z,82.08
2019-01-24T03:22:45.478Z,82.06
2019-01-24T03:25:16.447Z,82.12
2019-01-24T03:27:46.905Z,82.69
2019-01-24T03:30:20.447Z,82.80
2019-01-24T03:32:51.169Z,81.64
2019-01-24T03:35:25.254Z,82.83
2019-01-24T03:37:55.688Z,82.67
2019-01-24T03:40:26.154Z,82.44
2019-01-24T03:42:56.901Z,83.29
2019-01-24T03:45:27.432Z,83.39
2019-01-24T03:47:57.852Z,83.06
2019-01-24T03:50:28.612Z,82.59
2019-01-24T03:52:59.048Z,82.52
2019-01-24T03:55:29.521Z,83.52
2019-01-24T03:58:00.260Z,83.37
2019-01-24T04:00:30.729Z,83.66
2019-01-24T04:03:01.212Z,83.07
2019-01-24T04:05:31.671Z,82.98
2019-01-24T04:08:02.142Z,83.19
2019-01-24T04:10:32.651Z,83.73
2019-01-24T04:13:03.474Z,83.05
2019-01-24T04:15:34.202Z,82.96
2019-01-24T04:18:04.806Z,83.39
2019-01-24T04:20:35.297Z,82.49
2019-01-24T04:23:06.003Z,83.59
2019-01-24T04:25:36.429Z,84.00
2019-01-24T04:28:07.128Z,83.69
2019-01-24T04:30:37.631Z,84.23
2019-01-24T04:33:08.105Z,84.33
2019-01-24T04:35:38.579Z,84.25
2019-01-24T04:38:09.020Z,84.48
2019-01-24T04:40:39.488Z,83.67
2019-01-24T04:43:09.927Z,84.25
2019-01-24T04:45:40.647Z,84.35
2019-01-24T04:48:11.145Z,83.99
2019-01-24T04:50:41.647Z,84.13
2019-01-24T04:53:12.074Z,83.62
2019-01-24T04:55:42.562Z,84.08
2019-01-24T04:58:12.984Z,83.47
2019-01-24T05:00:43.461Z,83.44
2019-01-24T05:03:14.158Z,84.19
2019-01-24T05:05:44.628Z,84.26
2019-01-24T05:08:15.083Z,83.17
2019-01-24T05:10:45.837Z,83.16
2019-01-24T05:13:16.183Z,83.06
2019-01-24T05:15:46.676Z,83.08
2019-01-24T05:18:17.396Z,82.84
2019-01-24T05:20:47.833Z,84.34
2019-01-24T05:23:18.287Z,83.34
2019-01-24T05:25:48.965Z,83.80
2019-01-24T05:28:19.688Z,83.03
2019-01-24T05:30:50.414Z,83.03
2019-01-24T05:33:20.780Z,84.58
2019-01-24T05:35:51.603Z,84.10
2019-01-24T05:38:22.060Z,84.76
2019-01-24T05:40:53.035Z,84.40
2019-01-24T05:43:23.874Z,84.52
2019-01-24T05:45:54.354Z,85.37
2019-01-24T05:48:25.063Z,84.83
2019-01-24T05:50:56.643Z,83.67
2019-01-24T05:53:27.145Z,83.49
2019-01-24T05:55:57.605Z,84.58
2019-01-24T05:58:28.150Z,83.55
2019-01-24T06:00:58.807Z,84.29
2019-01-24T06:03:29.466Z,83.93
2019-01-24T06:06:00.542Z,84.64
2019-01-24T06:08:30.997Z,84.75
2019-01-24T06:11:01.690Z,84.23
2019-01-24T06:13:32.179Z,84.30
2019-01-24T06:16:03.100Z,84.69
2019-01-24T06:18:33.799Z,84.76
2019-01-24T06:21:04.581Z,84.16
2019-01-24T06:23:35.029Z,84.25
2019-01-24T06:26:05.491Z,85.19
2019-01-24T06:28:35.984Z,84.80
2019-01-24T06:31:06.444Z,84.16
2019-01-24T06:33:36.879Z,82.81
2019-01-24T06:36:07.642Z,83.50
2019-01-24T06:38:39.503Z,83.84
2019-01-24T06:41:10.263Z,84.72
2019-01-24T06:43:40.735Z,84.56
2019-01-24T06:46:11.181Z,84.01
2019-01-24T06:48:41.924Z,86.44
2019-01-24T06:51:12.668Z,87.61
2019-01-24T06:53:43.387Z,88.27
2019-01-24T06:56:13.788Z,89.11
2019-01-24T06:58:44.190Z,89.91
2019-01-24T07:01:14.615Z,90.54
2019-01-24T07:03:45.371Z,90.28
2019-01-24T07:06:15.877Z,90.61
2019-01-24T07:08:46.220Z,90.97
2019-01-24T07:11:16.675Z,90.84
2019-01-24T07:13:47.343Z,90.81
2019-01-24T07:16:17.887Z,91.01
2019-01-24T07:18:48.373Z,91.08
2019-01-24T07:21:19.121Z,91.27
2019-01-24T07:23:49.559Z,90.29
2019-01-24T07:26:21.389Z,90.20
2019-01-24T07:28:52.108Z,90.71
2019-01-24T07:31:22.788Z,90.58
2019-01-24T07:33:53.235Z,90.46
2019-01-24T07:36:23.736Z,89.91
2019-01-24T07:38:54.223Z,89.67
2019-01-24T07:41:24.669Z,89.66
2019-01-24T07:43:55.128Z,89.64
2019-01-24T07:46:25.592Z,88.84
2019-01-24T07:48:55.933Z,88.47
2019-01-24T07:51:26.396Z,88.14
2019-01-24T07:53:56.840Z,88.04
2019-01-24T07:56:27.286Z,87.90
2019-01-24T07:58:58.016Z,87.26
2019-01-24T08:01:28.372Z,87.84
2019-01-24T08:03:58.731Z,87.96
2019-01-24T08:06:29.193Z,87.02
2019-01-24T08:08:59.667Z,86.90
2019-01-24T08:11:30.099Z,86.36
2019-01-24T08:14:00.810Z,86.36
2019-01-24T08:16:31.426Z,86.15
2019-01-24T08:19:02.015Z,86.03
2019-01-24T08:21:32.449Z,85.29
2019-01-24T08:24:03.124Z,85.29
2019-01-24T08:26:33.571Z,85.52
2019-01-24T08:29:04.362Z,87.04
2019-01-24T08:31:34.779Z,86.95
2019-01-24T08:34:05.765Z,87.79
2019-01-24T08:36:36.498Z,87.64
2019-01-24T08:39:10.621Z,87.84
2019-01-24T08:41:40.991Z,88.65
2019-01-24T08:44:11.693Z,88.63
2019-01-24T08:46:42.113Z,89.19
2019-01-24T08:49:12.567Z,88.98
2019-01-24T08:51:43.053Z,89.54
2019-01-24T08:54:13.485Z,89.60
2019-01-24T08:56:44.002Z,90.00
2019-01-24T08:59:14.445Z,90.05
2019-01-24T09:01:44.975Z,91.75
2019-01-24T09:04:15.415Z,90.78
2019-01-24T09:06:45.872Z,91.45
2019-01-24T09:09:16.317Z,91.32
2019-01-24T09:11:47.034Z,91.53
2019-01-24T09:14:17.733Z,90.89
2019-01-24T09:16:48.174Z,90.82
2019-01-24T09:19:18.897Z,90.31
2019-01-24T09:21:49.512Z,90.83
2019-01-24T09:24:19.918Z,90.63
2019-01-24T09:26:50.400Z,90.09
2019-01-24T09:29:20.809Z,90.38
2019-01-24T09:31:51.295Z,90.74
2019-01-24T09:34:22.008Z,90.16
2019-01-24T09:36:52.778Z,90.21
2019-01-24T09:39:23.426Z,90.55
2019-01-24T09:41:53.929Z,89.26
2019-01-24T09:44:24.627Z,88.51
2019-01-24T09:46:55.075Z,88.78
2019-01-24T09:49:25.456Z,86.83
2019-01-24T09:51:56.163Z,87.82
2019-01-24T09:54:26.902Z,87.57
2019-01-24T09:56:57.389Z,86.83
2019-01-24T09:59:28.054Z,87.30
2019-01-24T10:01:58.729Z,86.95
2019-01-24T10:04:29.412Z,87.56
2019-01-24T10:07:00.109Z,87.47
2019-01-24T10:09:30.583Z,87.64
2019-01-24T10:12:01.253Z,88.49
2019-01-24T10:14:31.691Z,88.54
2019-01-24T10:17:02.139Z,89.27
2019-01-24T10:19:32.598Z,90.24
2019-01-24T10:22:03.124Z,86.88
2019-01-24T10:24:33.547Z,86.85
2019-01-24T10:27:04.368Z,87.68
2019-01-24T10:29:35.049Z,88.44
2019-01-24T10:32:05.674Z,88.47
2019-01-24T10:34:36.198Z,88.66
2019-01-24T10:37:06.649Z,89.28
2019-01-24T10:39:37.065Z,88.62
2019-01-24T10:42:07.511Z,88.80
2019-01-24T10:44:37.932Z,88.29
2019-01-24T10:47:08.297Z,86.89
2019-01-24T10:49:39.270Z,87.26
2019-01-24T10:52:09.709Z,86.82
2019-01-24T10:54:40.160Z,87.23
2019-01-24T10:57:10.871Z,86.45
2019-01-24T10:59:41.336Z,85.61
2019-01-24T11:02:12.285Z,86.06
2019-01-24T11:04:42.771Z,85.96
2019-01-24T11:07:13.534Z,85.26
2019-01-24T11:09:44.089Z,85.06
2019-01-24T11:12:14.555Z,84.96
2019-01-24T11:14:45.291Z,84.96
2019-01-24T11:17:15.726Z,84.15
2019-01-24T11:19:46.482Z,83.27
2019-01-24T11:22:16.970Z,83.45
2019-01-24T11:24:47.450Z,83.07
2019-01-24T11:27:18.160Z,83.58
2019-01-24T11:29:48.594Z,83.65
2019-01-24T11:32:19.031Z,83.15
2019-01-24T11:34:49.766Z,83.05
2019-01-24T11:37:20.422Z,84.60
2019-01-24T11:39:50.961Z,85.61
2019-01-24T11:42:21.837Z,85.83
2019-01-24T11:44:52.512Z,85.91
2019-01-24T11:47:23.070Z,84.44
2019-01-24T11:49:53.797Z,83.51
2019-01-24T11:52:24.731Z,83.87
2019-01-24T11:54:55.342Z,83.34
2019-01-24T11:57:26.137Z,83.92
2019-01-24T11:59:57.181Z,83.33
2019-01-24T12:02:27.888Z,83.06
2019-01-24T12:04:58.584Z,81.74
2019-01-24T12:07:29.283Z,81.68
2019-01-24T12:09:59.954Z,81.84
2019-01-24T12:12:30.801Z,82.13
2019-01-24T12:15:01.826Z,81.99
2019-01-24T12:17:32.531Z,81.55
2019-01-24T12:20:03.431Z,81.65
2019-01-24T12:22:34.244Z,82.01
2019-01-24T12:25:04.854Z,81.05
2019-01-24T12:27:35.477Z,81.51
2019-01-24T12:30:11.072Z,80.37
2019-01-24T12:32:42.127Z,80.58
2019-01-24T12:35:13.278Z,79.47
2019-01-24T12:37:44.149Z,80.21
2019-01-24T12:40:14.983Z,80.44
2019-01-24T12:42:45.831Z,80.12
2019-01-24T12:45:20.364Z,80.00
2019-01-24T12:47:51.487Z,79.62
2019-01-24T12:50:22.158Z,79.54
2019-01-24T12:52:53.296Z,78.69
2019-01-24T12:55:24.296Z,79.06
2019-01-24T12:57:54.943Z,79.02
2019-01-24T13:00:31.654Z,80.72
2019-01-24T13:03:02.470Z,80.42
2019-01-24T13:05:33.043Z,80.38
2019-01-24T13:08:03.895Z,79.11
2019-01-24T13:10:34.967Z,78.07
2019-01-24T13:13:06.019Z,77.77
2019-01-24T13:15:37.347Z,77.13
2019-01-24T13:18:07.962Z,76.75
2019-01-24T13:20:38.646Z,76.16
2019-01-24T13:23:09.341Z,76.29
2019-01-24T13:25:40.137Z,76.29
2019-01-24T13:28:10.689Z,77.13
2019-01-24T13:30:41.497Z,78.02
2019-01-24T13:33:12.382Z,77.50
2019-01-24T13:35:43.010Z,77.50
2019-01-24T13:38:13.628Z,78.03
2019-01-24T13:40:44.233Z,78.18
2019-01-24T13:43:14.980Z,77.49
2019-01-24T13:45:45.710Z,77.57
2019-01-24T13:48:16.194Z,78.82
2019-01-24T13:50:46.586Z,78.04
2019-01-24T13:53:17.082Z,79.06
2019-01-24T13:55:47.533Z,78.56
2019-01-24T13:58:18.261Z,78.07
2019-01-24T14:00:49.601Z,78.98
2019-01-24T14:04:09.216Z,79.33
2019-01-24T14:06:39.972Z,79.13
2019-01-24T14:09:11.541Z,78.89
2019-01-24T14:11:42.281Z,78.35
2019-01-24T14:14:13.033Z,77.79
2019-01-24T14:16:43.481Z,78.16
2019-01-24T14:19:14.158Z,78.68
2019-01-24T14:21:44.859Z,79.08
2019-01-24T14:24:15.662Z,78.44
2019-01-24T14:26:46.090Z,78.87
2019-01-24T14:29:16.548Z,79.62
2019-01-24T14:31:46.974Z,79.78
2019-01-24T14:34:17.348Z,79.21
2019-01-24T14:36:48.158Z,78.81
2019-01-24T14:39:18.579Z,79.61
2019-01-24T14:41:49.043Z,79.55
2019-01-24T14:44:19.424Z,80.04
2019-01-24T14:46:50.418Z,80.40
2019-01-24T14:49:20.837Z,79.25
2019-01-24T14:51:51.291Z,79.01
2019-01-24T14:54:21.914Z,78.74
2019-01-24T14:56:52.355Z,79.42
2019-01-24T14:59:23.020Z,79.32
2019-01-24T15:01:53.702Z,78.79
2019-01-24T15:04:24.134Z,78.83
2019-01-24T15:06:54.853Z,77.78
2019-01-24T15:09:25.313Z,78.67
2019-01-24T15:11:55.739Z,78.81
2019-01-24T15:14:26.502Z,79.13
2019-01-24T15:16:56.958Z,80.13
2019-01-24T15:19:27.422Z,79.22
2019-01-24T15:21:58.175Z,80.59
2019-01-24T15:24:28.674Z,80.18
2019-01-24T15:26:59.137Z,80.51
2019-01-24T15:29:29.843Z,81.49
2019-01-24T15:32:00.290Z,80.77
2019-01-24T15:34:30.773Z,80.86
2019-01-24T15:37:01.500Z,81.40
2019-01-24T15:39:31.961Z,81.18
2019-01-24T15:42:02.618Z,80.80
2019-01-24T15:44:33.122Z,80.60
2019-01-24T15:47:03.836Z,81.24
2019-01-24T15:49:34.573Z,80.72
2019-01-24T15:52:05.294Z,81.22
2019-01-24T15:54:35.738Z,81.81
2019-01-24T15:57:06.601Z,81.84
2019-01-24T15:59:37.090Z,81.51
2019-01-24T16:02:07.757Z,81.82
2019-01-24T16:04:38.125Z,81.42
2019-01-24T16:07:08.632Z,81.22
2019-01-24T16:09:40.013Z,81.67
2019-01-24T16:12:10.611Z,81.97
2019-01-24T16:14:41.018Z,81.20
2019-01-24T16:17:11.605Z,82.13
2019-01-24T16:19:42.092Z,82.24
2019-01-24T16:22:12.603Z,82.19
2019-01-24T16:24:43.128Z,82.95
2019-01-24T16:27:13.556Z,82.60
2019-01-24T16:29:44.062Z,82.77
2019-01-24T16:32:14.641Z,82.82
2019-01-24T16:34:45.152Z,83.01
2019-01-24T16:37:15.920Z,82.33
2019-01-24T16:39:46.369Z,83.76
2019-01-24T16:42:17.073Z,83.03
2019-01-24T16:44:47.535Z,82.90
2019-01-24T16:47:18.325Z,83.18
2019-01-24T16:49:49.190Z,83.50
2019-01-24T16:52:19.617Z,84.12
2019-01-24T16:54:50.058Z,83.27
2019-01-24T16:57:20.714Z,82.60
2019-01-24T16:59:51.483Z,81.72
2019-01-24T17:02:21.929Z,82.83
2019-01-24T17:04:52.643Z,82.93
2019-01-24T17:07:23.097Z,82.60
2019-01-24T17:09:53.620Z,83.24
2019-01-24T17:12:24.308Z,83.08
2019-01-24T17:14:54.781Z,82.77
2019-01-24T17:17:25.259Z,83.13
2019-01-24T17:19:55.761Z,83.47
2019-01-24T17:22:26.504Z,83.68
2019-01-24T17:24:56.955Z,82.88
2019-01-24T17:27:27.395Z,83.71
2019-01-24T17:29:57.865Z,83.50
2019-01-24T17:32:28.301Z,83.75
2019-01-24T17:34:58.673Z,82.37
2019-01-24T17:37:29.503Z,83.20
2019-01-24T17:39:59.937Z,82.42
2019-01-24T17:42:30.392Z,82.86
2019-01-24T17:45:00.866Z,83.08
2019-01-24T17:47:31.290Z,83.06
2019-01-24T17:50:01.991Z,83.14
2019-01-24T17:52:32.458Z,83.18
2019-01-24T17:55:02.897Z,82.73
2019-01-24T17:57:33.748Z,83.56
2019-01-24T18:00:05.660Z,83.59
2019-01-24T18:02:36.127Z,83.86
2019-01-24T18:05:07.424Z,83.62
2019-01-24T18:07:37.986Z,83.92
2019-01-24T18:10:14.284Z,82.70
2019-01-24T18:12:44.996Z,83.41
2019-01-24T18:15:23.466Z,84.13
2019-01-24T18:17:54.263Z,84.57
2019-01-24T18:20:27.665Z,84.23
2019-01-24T18:22:58.215Z,84.20
2019-01-24T18:25:29.119Z,84.29
2019-01-24T18:27:59.541Z,84.33
2019-01-24T18:30:31.574Z,84.73
2019-01-24T18:33:02.030Z,85.29
2019-01-24T18:35:32.790Z,85.31
2019-01-24T18:38:03.292Z,85.58
2019-01-24T18:40:33.932Z,85.18
2019-01-24T18:43:05.648Z,85.58
2019-01-24T18:45:47.860Z,85.71
2019-01-24T18:48:18.294Z,84.80
2019-01-24T18:50:49.281Z,85.29
2019-01-24T18:53:19.754Z,85.68
2019-01-24T18:55:50.197Z,86.39
2019-01-24T18:58:20.635Z,85.65
2019-01-24T19:00:51.137Z,85.82
2019-01-24T19:03:21.580Z,86.11
2019-01-24T19:05:52.019Z,86.18
2019-01-24T19:08:22.780Z,86.24
2019-01-24T19:10:53.545Z,86.16
2019-01-24T19:13:23.966Z,86.13
2019-01-24T19:15:54.502Z,86.90
2019-01-24T19:18:25.120Z,87.38
2019-01-24T19:20:56.116Z,87.02
2019-01-24T19:23:26.767Z,87.03
2019-01-24T19:25:58.133Z,88.11
2019-01-24T19:28:28.882Z,87.76
2019-01-24T19:30:59.662Z,86.97
2019-01-24T19:33:30.504Z,87.34
2019-01-24T19:36:02.971Z,87.52
2019-01-24T19:38:34.138Z,88.13
2019-01-24T19:41:07.897Z,87.60
2019-01-24T19:43:40.667Z,88.27
2019-01-24T19:46:11.724Z,88.04
2019-01-24T19:48:42.591Z,88.04
2019-01-24T19:51:13.463Z,88.53
2019-01-24T19:53:44.613Z,88.51
2019-01-24T19:56:15.533Z,88.84
2019-01-24T19:58:46.471Z,88.65
2019-01-24T20:01:17.940Z,89.05
2019-01-24T20:03:49.052Z,87.57
2019-01-24T20:06:19.810Z,86.98
2019-01-24T20:08:50.683Z,85.80
2019-01-24T20:11:21.687Z,85.39
2019-01-24T20:13:59.508Z,84.80
2019-01-24T20:16:29.881Z,86.50
2019-01-24T20:19:00.884Z,85.74
2019-01-24T20:21:31.566Z,85.10
2019-01-24T20:24:04.116Z,85.20
2019-01-24T20:26:35.089Z,84.89
2019-01-24T20:29:06.083Z,85.71
2019-01-24T20:31:38.457Z,84.08
2019-01-24T20:34:09.120Z,83.24
2019-01-24T20:36:40.138Z,83.00
2019-01-24T20:39:12.065Z,82.97
2019-01-24T20:41:42.857Z,82.45
2019-01-24T20:44:16.134Z,83.41
2019-01-24T20:46:47.309Z,81.49
2019-01-24T20:49:18.170Z,80.94
2019-01-24T20:51:49.110Z,82.65
2019-01-24T20:54:27.590Z,82.60
2019-01-24T20:56:59.169Z,83.55
2019-01-24T20:59:30.664Z,80.92
2019-01-24T21:02:01.390Z,80.64
2019-01-24T21:04:33.022Z,82.45
2019-01-24T21:07:07.432Z,82.23
2019-01-24T21:09:40.974Z,81.48
2019-01-24T21:12:11.707Z,84.98
2019-01-24T21:14:42.280Z,82.87
2019-01-24T21:17:13.034Z,83.17
2019-01-24T21:19:43.805Z,82.21
2019-01-24T21:22:18.898Z,83.74
2019-01-24T21:24:54.583Z,85.52
2019-01-24T21:27:28.867Z,82.73
2019-01-24T21:30:01.227Z,84.28
2019-01-24T21:32:35.830Z,84.90
2019-01-24T21:35:10.427Z,84.80
2019-01-24T21:37:44.457Z,85.14
2019-01-24T21:40:18.791Z,84.49
2019-01-24T21:42:55.992Z,84.90
2019-01-24T21:45:30.662Z,85.30
2019-01-24T21:48:05.603Z,84.99
2019-01-24T21:50:41.243Z,85.81
2019-01-24T21:53:12.231Z,84.79
2019-01-24T21:55:47.803Z,85.23
2019-01-24T21:58:19.280Z,84.60
2019-01-24T22:00:49.996Z,84.44
2019-01-24T22:03:20.853Z,86.12
2019-01-24T22:05:51.545Z,84.00
2019-01-24T22:08:22.531Z,82.97
2019-01-24T22:10:53.288Z,82.72
2019-01-24T22:13:24.297Z,83.92
2019-01-24T22:15:55.062Z,84.08
2019-01-24T22:18:25.874Z,84.30
2019-01-24T22:20:56.343Z,83.34
2019-01-24T22:23:26.826Z,84.48
2019-01-24T22:25:57.454Z,84.90
2019-01-24T22:28:28.036Z,86.44
2019-01-24T22:31:00.093Z,85.28
2019-01-24T22:33:30.607Z,85.03
2019-01-24T22:36:01.476Z,84.99
2019-01-24T22:38:31.949Z,85.83
2019-01-24T22:41:02.453Z,85.77
2019-01-24T22:43:32.898Z,85.86
2019-01-24T22:46:03.659Z,86.37
2019-01-24T22:48:34.165Z,86.71
2019-01-24T22:51:04.952Z,86.20
2019-01-24T22:53:35.389Z,86.31
2019-01-24T22:56:06.262Z,86.46
2019-01-24T22:58:36.996Z,86.82
2019-01-24T23:01:31.324Z,86.68
2019-01-24T23:04:25.047Z,87.07
2019-01-24T23:06:55.571Z,85.55
2019-01-24T23:09:26.335Z,87.11
2019-01-24T23:11:57.073Z,86.20
2019-01-24T23:14:27.564Z,86.14
2019-01-24T23:16:58.026Z,86.49
2019-01-24T23:19:28.400Z,85.87
2019-01-24T23:21:59.271Z,86.59
2019-01-24T23:24:29.990Z,86.94
2019-01-24T23:27:00.531Z,86.45
2019-01-24T23:29:31.273Z,86.81
2019-01-24T23:32:01.736Z,86.27
2019-01-24T23:34:32.358Z,88.55
2019-01-24T23:37:02.870Z,87.14
2019-01-24T23:39:33.659Z,86.97
2019-01-24T23:42:04.097Z,87.04
2019-01-24T23:44:34.535Z,86.56
2019-01-24T23:47:05.212Z,86.17
2019-01-24T23:49:36.314Z,86.45
2019-01-24T23:52:06.779Z,86.92
2019-01-24T23:54:37.202Z,86.43
2019-01-24T23:57:07.959Z,86.82
2019-01-24T23:59:38.483Z,87.09
